Decoded Metar for KAID (ANDERSON MUNICIP in IN, USA) (IATA:AID) | Meteo·Mobile Aviation Weather
aviador You're here:

KAID Decoded Metar

ANDERSON MUNICIP in IN, USA
Report Time2019-01-16 17:45:00
UTC Time2019-01-16 17:58:20
Flight Rules mvfr MVFR
WindCalm
Visibility9999 m
Phenomena:N/A
Clouds:N/A
Expected CloudBase > 400 ft AGL from Temp-Dew spread
Ceiling1,100 ft
Temp00°C (ISA -13)
Dew Point-1°C (93% RH)
AAT-2.1°C
QNH1024 hPa
Density Alt-981 ft
Elevation919 ft
Report Wrong Elevation
Raw Report
KAID 161745Z 00000KT 10SM BKN011OVC021 00/M01 A3024=

Extra information for KAID:More info

Metar Taf Metar & Taf Last 4 Metars F.Rules Stats Wind Profile Meteogram Temp Stats Airport Information Weather charts Add Link Nearby VenuesMetar ALERT Operation Metar Decoded Social comments

AIRNAV info for KAID